KTBN/TBN METAR and TAF weather

Enter ICAO airport designator
Station Type Date Time Source
KTBN METAR 2018/12/19 08:56 UTC NOAA

KTBN 190856Z AUTO 15003KT 10SM SCT230 03/M01 A2994 RMK AO2 SLP144 T00291006 57012


Station Type Date Time Source
KTBN Decoded METAR 2018/12/19 08:56 UTC NOAA

Fort Leonard Wood, MO, United States (KTBN) 37-44N 092-08W
Dec 19, 2018 - 03:56 AM EST / 2018.12.19 0856 UTC
Wind: from the SSE (150 degrees) at 3 MPH (3 KT):0
Visibility: 10 mile(s):0
Sky conditions: partly cloudy
Temperature: 37.2 F (2.9 C)
Dew Point: 30.9 F (-0.6 C)
Relative Humidity: 77%
Pressure (altimeter): 29.94 in. Hg (1013 hPa)
Pressure tendency: 0.04 inches (1.2 hPa) lower than three hours ago
ob: KTBN 190856Z AUTO 15003KT 10SM SCT230 03/M01 A2994 RMK AO2 SLP144 T00291006 57012
cycle: 9

Station Type Date Time Source
KTBN TAF UTC NOAA

Error!


Example: see airport list